NCAR-RAP Real-Time Weather Data

Output produced by METARs form (27 January 2020  08:49 UTC)
found at http://weather.rap.ucar.edu/surface/
 
K0S9 270835Z AUTO 00000KT 10SM FEW032 SCT065 BKN075 06/05 A3004 RMK AO2
 
K1S5 270835Z AUTO 19004KT 10SM SCT110 06/03 A3008 RMK AO2 T00620027
 
K1YT 270758Z AUTO 21003KT 10SM FEW025 FEW110 03/01 A3004 RMK AO2 SLPNO T00340005 400910034 $
 
KALW 270753Z AUTO 00000KT 10SM BKN080 BKN110 04/01 A3010 RMK AO2 SLP197 T00440006 401000017
 
KAWO 270756Z AUTO 16010KT 10SM OVC015 08/06 A3007 RMK AO2 RAE39 SLP186 P0000 T00780061 401170056
 
KBFI 270753Z AUTO 17010KT 10SM BKN016 BKN036 OVC045 09/06 A3009 RMK AO2 SLP188 T00890056 401220072 TSNO
 
KBLI 270753Z AUTO 17011G17KT 10SM FEW017 SCT025 BKN035 09/05 A3002 RMK AO2 RAE13 SLP173 P0001 T00890050 401170056
 
KBVS 270835Z AUTO 16005KT 10SM OVC035 08/06 A3005 RMK A01
 
KCLM 270753Z AUTO 25007KT 10SM BKN055 06/04 A3002 RMK AO2 RAE04 SLP168 P0000 T00560039 401110044
 
KCLS 270835Z AUTO 00000KT 9SM BKN010 BKN026 OVC045 07/07 A3013 RMK AO2
 
 
KDEW 270819Z AUTO 00000KT 5SM BR OVC014 01/01 A3007 RMK AO2 T00110006
 
KEAT 270843Z AUTO 27003KT 9SM SCT006 OVC010 01/01 A3005 RMK AO2 T00110006
 
KELN 270821Z AUTO 28004KT 10SM BKN018 BKN060 01/M01 A3004 RMK AO2 T00111011
 
KEPH 270810Z AUTO 02003KT 1/4SM FG VV002 03/03 A3005 RMK AO2 T00280028
 
KFHR 270753Z AUTO 00000KT 10SM FEW060 SCT090 BKN110 06/04 A3003 RMK AO2 SLP170 T00560044 401220050
 
KGEG 270753Z 15005KT 1/2SM R21/P6000FT BR SCT001 OVC002 03/02 A3006 RMK AO2 SFC VIS 1 1/4 SLP194 T00280017 400390017
 
KGRF 270815Z 15006KT 10SM SCT025 BKN031 07/07 A3011 RMK AO2A RAE05 SLP201 $
 
 
KHQM 270753Z AUTO 20007KT 10SM FEW019 BKN055 BKN070 08/08 A3009 RMK AO2 SLP193 T00830078 401110083 $
 
KKLS 270756Z AUTO 14006KT 10SM -RA FEW018 OVC039 07/06 A3017 RMK AO2 RAE18B50 SLP219 P0001 T00720061 401280072
 
KMWH 270825Z AUTO 00000KT 2SM BR FEW080 BKN090 02/01 A3005 RMK AO2 T00220006
 
KNUW 270756Z 15012KT 10SM SCT020 SCT055 BKN120 09/05 A3008 RMK SLP184 T00940050 401330089
 
 
KOLM 270832Z AUTO 20007KT 10SM SCT027 06/05 A3011 RMK AO2 T00610050
 
KOMK 270753Z AUTO 00000KT 10SM SCT017 BKN028 OVC065 02/M01 A3005 RMK AO2 SLP190 T00171006 400280006
 
KORS 270835Z AUTO 19009KT 10SM FEW034 FEW060 SCT100 08/07 A3002 RMK AO2
 
KPAE 270814Z AUTO 19011KT 10SM BKN017 07/05 A3006 RMK AO2 T00720050
 
KPLU 270835Z AUTO 19005KT 10SM SCT034 BKN041 OVC075 07/06 A3011 RMK AO2
 
KPSC 270753Z AUTO 08004KT 10SM BKN060 OVC080 07/04 A3010 RMK AO2 RAB31E53 SLP194 P0000 T00720039 401440044
 
KPUW 270753Z AUTO 09004KT 10SM FEW032 02/00 A3010 RMK AO2 SLP208 T00170000 400560017
 
KPWT 270845Z AUTO 22010KT 9SM -RA SCT009 BKN019 OVC038 07/06 A3008 RMK AO2 RAB18 P0002
 
KRLD 270835Z AUTO 21004KT 10SM SCT070 BKN085 OVC110 08/04 A3010 RMK AO2 T00840043
 
KRNT 270839Z AUTO 19003KT 10SM SCT022 BKN029 OVC036 08/05 A3010 RMK AO2 T00830050 $
 
KSEA 270846Z 19012KT 10SM FEW015 SCT029 BKN085 08/06 A3009 RMK AO2 T00780056
 
KSFF 270753Z AUTO 00000KT 8SM OVC013 04/03 A3008 RMK AO2 SLP197 T00390028 400500022
 
KSHN 270807Z AUTO 21008KT 10SM BKN017 BKN023 OVC050 07/06 A3007 RMK AO2 RAE0756 P0000 T00720056
 
KSKA 270758Z 13005KT 10SM BKN004 OVC009 03/03 A3005 RMK AO2A SLP195 T00260026 400380016 $
 
KSMP 270837Z AUTO VRB05KT 1/2SM -SN FG VV002 00/M01 A3000 RMK AO2 P0003 T00001011
 
KTCM 270818Z AUTO 18005KT 10SM BKN025 OVC034 07/07 A3011 RMK AO2 RAB03E18 CIG 025V035 BKN V SCT SLP201 $
 
 
KTIW 270812Z AUTO 20011KT 8SM -RA SCT027 BKN040 OVC055 07/06 A3010 RMK AO2 RAB03 P0000 T00670056 $
 
KUIL 270753Z AUTO 21005KT 10SM FEW024 SCT041 BKN060 06/05 A3004 RMK AO2 RAB12E33 SLP174 P0001 T00610050 401000061
 
KVUO 270826Z AUTO 13007KT 100V160 10SM BKN014 08/06 A3017 RMK AO2 T00830061
 
KYKM 270753Z AUTO 30009KT 10SM BKN120 06/02 A3006 RMK AO2 PK WND 20026/0705 SLP184 T00610017 401060028